Pagina principală
METAR-TAF:

METAR-TAF

Aeroporturi :

Nouméa, Noua Caledonie

Latitudine: 22-15-30S, longitudine: 166-28-22E, elevație: 3 m

METAR: lipsă

Ora: 22:53 (11:53 UTC)

Prognoză

Raportul a fost făcut în urmă cu 6 ore și 53 de minute, la 05:00 UTC
Prognoză valabilă de la 28 ora 06 UTC la 29 ora 06 UTC
Vânt 14 kt de la Sud-est
Vizibilitate de 10 km sau mai mult
Nori puțini la o înălțime de 2000 picior
Nori fragmentați la o înălțime de 4000 picior
Temporar
de la 28 ora 06 UTC la 28 ora 18 UTC
averse de ploaie
Probabilitate 40% :
Temporar
de la 28 ora 06 UTC la 28 ora 13 UTC
Vânt 15 kt de la Sud-est cu rafale de până la 25 kt
Vizibilitate: 3500 m
Nori fragmentați la o înălțime de 1200 picior
Nori împrăștiați la o înălțime de 1500 picior, Cumulus congestus.
averse de ploaie puternică,

TAF: NWWM 280500Z 2806/2906 14014KT 9999 FEW020 BKN040 TEMPO 2806/2818 SHRA PROB40 TEMPO 2806/2813 14015G25KT 3500 +SHRA BKN012 SCT015TCU

Observații și prognoze meteo pentru peste 4.000 de aeroporturi (rapoarte METAR și TAF).

Stațiile disponibile sunt reprezentate pe hartă prin puncte galbene și roșii.

Țineți indicatorul mouse-ului pe punctul dorit pentru a vedea denumirea stației.

Apoi, faceți clic pentru a vedea observațiile și prognozele meteorologice.

Pentru a schimba harta: Pentru mărire, faceți clic pe butoanele verzi cu cruce neagră; pentru micșorare, pe butonul verde cu o liniuță; pentru hărți învecinate, pe săgețile verzi.


METAR-TAF: